Vremea mâine în Săcele - Romania

Vrei sa afli care e starea vremii acum in Brasov - Romania? Dorim sa iti furnizam starea vremii pentru Brasov - Romania. Starea vremii Brasov - Romania pentru astazi.

Vremea mâine în Săcele

Temperatura minimă:
5.6 °C

Temperatura maximă:
18.2 °C

Mâine va fi: Patchy rain nearby
Precipitații: 88 %
Umiditate: 73%
Viteza maximă vânt mâine:
9.4 km/h

Evoluția vremii in Săcele pe ore mâine

Ora: 04:00
Temperatura: °C
Sansa de precipitatii: %
Ora Descriere Temp Se simte Precipitatii Umiditate Vant
00:00Senin8.2°8.2°0%88%W 1.4 KM/H
01:00Senin7.2°7.2°0%90%SW 1.1 KM/H
02:00Senin6.7°6.7°0%91%SSW 1.8 KM/H
03:00Senin6.3°6.3°0%91%S 1.8 KM/H
04:00Senin0%91%S 1.4 KM/H
05:00Senin5.7°5.7°0%92%S 2.2 KM/H
06:00Senin5.6°5.6°0%92%S 2.2 KM/H
07:00Senin6.8°6.8°0%91%SSE 1.8 KM/H
08:00Senin9.3°9.3°0%84%ENE 1.4 KM/H
09:00Senin11.5°12.1°0%74%NE 3.2 KM/H
10:00Senin13.7°14.1°0%63%ENE 4.3 KM/H
11:00Senin15.7°15.7°0%53%NE 4.7 KM/H
12:00Senin17.1°17.1°0%46%NE 5.4 KM/H
13:00Senin18°18°0%42%NE 6.5 KM/H
14:00Patchy rain nearby18.2°18.2°72%43%ENE 6.5 KM/H
15:00Patchy rain nearby17.7°17.7°100%48%ESE 6.5 KM/H
16:00Patchy rain nearby17.5°17.5°100%50%SE 8.6 KM/H
17:00Patchy rain nearby17.3°17.3°84%53%SSE 9.4 KM/H
18:00Patchy rain nearby16.6°16.6°100%59%S 8.6 KM/H
19:00Patchy rain nearby15.3°15.3°66%69%S 7.9 KM/H
20:00Senin12.4°11.7°0%80%S 8.3 KM/H
21:00Senin10°8.8°0%86%S 9.4 KM/H
22:00Senin7.6°0%89%S 9 KM/H
23:00Senin8.4°7.5°0%89%S 6.5 KM/H




tutorials